createdAt,value
2022-11-15T00:00:19.411Z,2.83
2022-11-15T00:01:17.996Z,2.72
2022-11-15T00:02:14.578Z,2.66
2022-11-15T00:03:11.078Z,2.86
2022-11-15T00:04:07.909Z,2.72
2022-11-15T00:05:04.535Z,2.61
2022-11-15T00:06:06.861Z,2.74
2022-11-15T00:07:03.339Z,2.64
2022-11-15T00:07:59.908Z,2.51
2022-11-15T00:08:58.766Z,2.52
2022-11-15T00:09:55.202Z,2.44
2022-11-15T00:10:55.113Z,1.60
2022-11-15T00:11:52.416Z,2.58
2022-11-15T00:12:48.919Z,2.58
2022-11-15T00:13:45.396Z,2.66
2022-11-15T00:14:41.912Z,2.69
2022-11-15T00:15:38.801Z,2.71
2022-11-15T00:16:35.246Z,2.72
2022-11-15T00:17:31.767Z,2.74
2022-11-15T00:18:28.619Z,2.73
2022-11-15T00:19:25.116Z,2.76
2022-11-15T00:20:21.612Z,2.77
2022-11-15T00:21:18.476Z,2.78
2022-11-15T00:22:14.923Z,2.71
2022-11-15T00:23:11.775Z,2.52
2022-11-15T00:24:08.289Z,2.65
2022-11-15T00:25:04.962Z,2.74
2022-11-15T00:26:01.592Z,2.90
2022-11-15T00:26:58.042Z,2.99
2022-11-15T00:27:57.960Z,3.03
2022-11-15T00:28:54.623Z,2.95
2022-11-15T00:29:51.056Z,2.98
2022-11-15T00:30:47.527Z,2.91
2022-11-15T00:31:43.993Z,2.73
2022-11-15T00:32:40.501Z,2.43
2022-11-15T00:33:36.981Z,2.52
2022-11-15T00:34:33.559Z,2.67
2022-11-15T00:35:32.125Z,2.72
2022-11-15T00:36:28.603Z,2.55
2022-11-15T00:37:25.132Z,2.52
2022-11-15T00:38:21.609Z,2.57
2022-11-15T00:39:18.062Z,2.62
2022-11-15T00:40:15.010Z,2.65
2022-11-15T00:41:11.570Z,2.59
2022-11-15T00:42:08.132Z,2.67
2022-11-15T00:43:04.563Z,2.62
2022-11-15T00:44:01.078Z,2.76
2022-11-15T00:44:57.573Z,3.20
2022-11-15T00:45:54.296Z,3.27
2022-11-15T00:46:50.747Z,3.23
2022-11-15T00:47:47.617Z,3.58
2022-11-15T00:48:44.128Z,3.59
2022-11-15T00:49:42.000Z,3.48
2022-11-15T00:50:38.485Z,3.23
2022-11-15T00:51:35.029Z,2.88
2022-11-15T00:52:31.508Z,2.71
2022-11-15T00:53:28.166Z,2.97
2022-11-15T00:54:24.725Z,2.79
2022-11-15T00:55:21.375Z,2.73
2022-11-15T00:56:17.837Z,2.67
2022-11-15T00:57:14.333Z,2.66
2022-11-15T00:58:10.815Z,2.15
2022-11-15T00:59:07.285Z,2.61
2022-11-15T01:00:03.979Z,2.62
2022-11-15T01:01:08.110Z,2.62
2022-11-15T01:02:04.746Z,2.54
2022-11-15T01:03:01.590Z,2.46
2022-11-15T01:04:01.234Z,2.54
2022-11-15T01:04:58.174Z,2.47
2022-11-15T01:05:54.661Z,2.47
2022-11-15T01:06:51.220Z,2.63
2022-11-15T01:07:47.820Z,2.55
2022-11-15T01:08:44.309Z,2.58
2022-11-15T01:09:40.783Z,2.46
2022-11-15T01:10:37.887Z,2.44
2022-11-15T01:11:34.705Z,2.34
2022-11-15T01:12:31.225Z,2.56
2022-11-15T01:13:30.370Z,2.38
2022-11-15T01:14:27.066Z,2.47
2022-11-15T01:15:23.545Z,2.66
2022-11-15T01:16:20.021Z,2.56
2022-11-15T01:17:16.577Z,2.48
2022-11-15T01:18:13.035Z,2.43
2022-11-15T01:19:09.540Z,2.53
2022-11-15T01:20:06.258Z,2.51
2022-11-15T01:21:06.902Z,2.45
2022-11-15T01:22:03.398Z,2.65
2022-11-15T01:22:59.942Z,2.48
2022-11-15T01:23:57.480Z,2.49
2022-11-15T01:24:53.999Z,2.85
2022-11-15T01:25:50.430Z,2.87
2022-11-15T01:26:46.951Z,2.50
2022-11-15T01:27:43.415Z,2.39
2022-11-15T01:28:40.731Z,2.56
2022-11-15T01:29:37.415Z,2.69
2022-11-15T01:30:33.981Z,2.64
2022-11-15T01:31:30.453Z,2.75
2022-11-15T01:32:26.897Z,2.83
2022-11-15T01:33:23.325Z,2.86
2022-11-15T01:34:19.789Z,2.87
2022-11-15T01:35:16.377Z,3.04
2022-11-15T01:36:17.054Z,3.32
2022-11-15T01:37:13.515Z,3.36
2022-11-15T01:38:10.004Z,3.30
2022-11-15T01:39:06.447Z,3.37
2022-11-15T01:40:03.076Z,3.23
2022-11-15T01:40:59.672Z,3.08
2022-11-15T01:41:56.178Z,2.73
2022-11-15T01:42:52.672Z,2.64
2022-11-15T01:43:53.506Z,2.56
2022-11-15T01:44:54.168Z,2.56
2022-11-15T01:45:53.814Z,2.42
2022-11-15T01:46:50.350Z,2.18
2022-11-15T01:47:48.870Z,2.28
2022-11-15T01:48:45.406Z,2.32
2022-11-15T01:49:46.737Z,2.38
2022-11-15T01:50:43.213Z,2.52
2022-11-15T01:51:40.443Z,2.30
2022-11-15T01:52:38.396Z,2.27
2022-11-15T01:53:36.303Z,2.19
2022-11-15T01:54:32.855Z,2.21
2022-11-15T01:55:29.428Z,2.25
2022-11-15T01:56:28.858Z,2.35
2022-11-15T01:57:25.399Z,2.44
2022-11-15T01:58:21.931Z,2.49
2022-11-15T01:59:19.232Z,2.41
2022-11-15T02:00:16.164Z,2.41
2022-11-15T02:01:13.470Z,2.14
2022-11-15T02:02:10.057Z,2.09
2022-11-15T02:03:06.652Z,2.23
2022-11-15T02:04:14.811Z,2.37
2022-11-15T02:05:11.310Z,2.35
2022-11-15T02:06:07.912Z,2.15
2022-11-15T02:07:05.821Z,2.17
2022-11-15T02:08:02.338Z,2.20
2022-11-15T02:08:59.839Z,2.33
2022-11-15T02:09:56.560Z,2.36
2022-11-15T02:10:53.033Z,2.31
2022-11-15T02:11:50.960Z,2.48
2022-11-15T02:12:47.918Z,2.59
2022-11-15T02:13:44.869Z,2.59
2022-11-15T02:14:42.606Z,2.62
2022-11-15T02:15:43.742Z,2.47
2022-11-15T02:16:49.417Z,2.43
2022-11-15T02:17:59.193Z,2.65
2022-11-15T02:19:04.606Z,2.69
2022-11-15T02:20:04.172Z,2.70
2022-11-15T02:21:24.064Z,2.56
2022-11-15T02:22:46.925Z,2.36
2022-11-15T02:24:02.083Z,2.27
2022-11-15T02:25:07.719Z,2.45
2022-11-15T02:26:04.155Z,2.05
2022-11-15T02:27:00.601Z,2.49
2022-11-15T02:27:57.026Z,2.89
2022-11-15T02:29:14.331Z,3.03
2022-11-15T02:30:29.857Z,3.11
2022-11-15T02:31:44.935Z,2.86
2022-11-15T02:32:56.795Z,2.47
2022-11-15T02:34:25.550Z,2.32
2022-11-15T02:35:22.000Z,2.27
2022-11-15T02:36:38.708Z,2.50
2022-11-15T02:37:57.604Z,2.50
2022-11-15T02:39:06.398Z,2.47
2022-11-15T02:40:09.085Z,2.53
2022-11-15T02:41:07.960Z,2.21
2022-11-15T02:42:33.892Z,2.12
2022-11-15T02:43:56.905Z,2.07
2022-11-15T02:44:54.236Z,1.67
2022-11-15T02:45:52.838Z,2.09
2022-11-15T02:47:10.754Z,2.03
2022-11-15T02:48:08.335Z,2.03
2022-11-15T02:49:05.382Z,2.20
2022-11-15T02:50:13.195Z,2.31
2022-11-15T02:51:10.205Z,2.37
2022-11-15T02:52:06.666Z,2.52
2022-11-15T02:53:03.910Z,2.74
2022-11-15T02:54:00.337Z,2.57
2022-11-15T02:54:57.826Z,2.60
2022-11-15T02:55:54.849Z,2.62
2022-11-15T02:56:54.097Z,2.62
2022-11-15T02:57:56.616Z,2.48
2022-11-15T02:58:55.892Z,2.22
2022-11-15T02:59:52.374Z,2.25
2022-11-15T03:00:59.790Z,2.26
2022-11-15T03:02:12.534Z,2.27
2022-11-15T03:03:18.020Z,2.24
2022-11-15T03:04:14.484Z,2.17
2022-11-15T03:05:10.887Z,2.07
2022-11-15T03:06:13.227Z,2.31
2022-11-15T03:07:33.014Z,2.27
2022-11-15T03:08:29.513Z,2.39
2022-11-15T03:09:53.361Z,2.20
2022-11-15T03:11:08.500Z,2.23
2022-11-15T03:12:23.778Z,2.05
2022-11-15T03:13:29.679Z,2.37
2022-11-15T03:14:37.724Z,2.41
2022-11-15T03:15:38.187Z,2.32
2022-11-15T03:16:39.677Z,1.88
2022-11-15T03:17:59.965Z,1.82
2022-11-15T03:19:00.408Z,2.18
2022-11-15T03:19:58.456Z,2.60
2022-11-15T03:20:55.869Z,2.86
2022-11-15T03:21:53.719Z,2.75
2022-11-15T03:22:51.516Z,2.59
2022-11-15T03:23:49.639Z,2.22
2022-11-15T03:24:48.351Z,2.04
2022-11-15T03:25:47.478Z,2.02
2022-11-15T03:26:45.724Z,2.09
2022-11-15T03:27:45.082Z,1.96
2022-11-15T03:28:51.600Z,1.85
2022-11-15T03:29:51.425Z,1.75
2022-11-15T03:30:49.681Z,1.82
2022-11-15T03:31:50.700Z,1.84
2022-11-15T03:32:50.066Z,1.98
2022-11-15T03:33:46.580Z,2.02
2022-11-15T03:34:46.106Z,2.21
2022-11-15T03:35:45.457Z,2.44
2022-11-15T03:36:42.124Z,2.69
2022-11-15T03:37:38.638Z,2.47
2022-11-15T03:38:36.061Z,2.16
2022-11-15T03:39:32.689Z,2.14
2022-11-15T03:40:32.299Z,2.22
2022-11-15T03:41:40.871Z,2.24
2022-11-15T03:42:43.132Z,2.27
2022-11-15T03:43:51.868Z,2.27
2022-11-15T03:45:06.855Z,2.33
2022-11-15T03:46:07.124Z,2.33
2022-11-15T03:47:15.531Z,2.33
2022-11-15T03:48:14.639Z,2.46
2022-11-15T03:49:17.916Z,2.49
2022-11-15T03:50:19.366Z,2.53
2022-11-15T03:51:16.265Z,2.54
2022-11-15T03:52:13.211Z,2.60
2022-11-15T03:53:09.806Z,2.60
2022-11-15T03:54:06.377Z,2.69
2022-11-15T03:55:04.564Z,2.71
2022-11-15T03:56:00.978Z,2.74
2022-11-15T03:56:57.587Z,2.85
2022-11-15T03:57:55.805Z,2.94
2022-11-15T03:58:52.278Z,2.96
2022-11-15T03:59:48.878Z,2.89
2022-11-15T04:00:45.361Z,2.81
2022-11-15T04:01:41.936Z,2.88
2022-11-15T04:02:38.437Z,2.90
2022-11-15T04:03:35.064Z,2.98
2022-11-15T04:04:31.694Z,3.02
2022-11-15T04:05:28.395Z,3.06
2022-11-15T04:06:24.869Z,3.06
2022-11-15T04:07:21.395Z,3.13
2022-11-15T04:08:17.980Z,3.07
2022-11-15T04:09:14.526Z,3.05
2022-11-15T04:10:11.659Z,3.10
2022-11-15T04:11:08.191Z,3.06
2022-11-15T04:12:04.724Z,3.07
2022-11-15T04:13:03.317Z,3.12
2022-11-15T04:13:59.853Z,3.09
2022-11-15T04:15:08.231Z,3.08
2022-11-15T04:16:04.888Z,3.18
2022-11-15T04:17:01.354Z,3.15
2022-11-15T04:17:58.208Z,2.84
2022-11-15T04:19:13.544Z,3.19
2022-11-15T04:20:30.691Z,3.25
2022-11-15T04:21:45.481Z,3.22
2022-11-15T04:23:00.581Z,3.32
2022-11-15T04:24:15.079Z,3.24
2022-11-15T04:25:11.558Z,3.27
2022-11-15T04:26:11.083Z,3.21
2022-11-15T04:27:07.552Z,3.37
2022-11-15T04:28:04.085Z,3.31
2022-11-15T04:29:19.186Z,3.32
2022-11-15T04:30:15.865Z,3.37
2022-11-15T04:31:12.335Z,3.41
2022-11-15T04:32:08.878Z,3.59
2022-11-15T04:33:05.472Z,3.46
2022-11-15T04:34:01.986Z,3.42
2022-11-15T04:34:58.411Z,3.40
2022-11-15T04:36:13.351Z,3.33
2022-11-15T04:37:12.700Z,3.34
2022-11-15T04:38:09.937Z,3.33
2022-11-15T04:39:06.547Z,3.37
2022-11-15T04:40:03.041Z,3.32
2022-11-15T04:40:59.559Z,3.31
2022-11-15T04:41:56.023Z,3.23
2022-11-15T04:42:52.523Z,3.21
2022-11-15T04:43:49.051Z,3.20
2022-11-15T04:44:45.500Z,3.18
2022-11-15T04:45:41.997Z,3.27
2022-11-15T04:46:38.516Z,3.28
2022-11-15T04:47:34.988Z,3.30
2022-11-15T04:48:31.439Z,3.31
2022-11-15T04:49:27.860Z,3.37
2022-11-15T04:50:24.314Z,3.33
2022-11-15T04:51:21.249Z,3.22
2022-11-15T04:52:17.731Z,3.30
2022-11-15T04:53:14.367Z,3.30
2022-11-15T04:54:10.910Z,3.15
2022-11-15T04:55:08.384Z,3.12
2022-11-15T04:56:05.131Z,3.27
2022-11-15T04:57:01.627Z,3.34
2022-11-15T04:57:59.583Z,3.34
2022-11-15T04:58:56.075Z,3.33
2022-11-15T04:59:52.618Z,3.34
2022-11-15T05:00:49.167Z,3.30
2022-11-15T05:01:45.711Z,3.24
2022-11-15T05:03:00.713Z,3.30
2022-11-15T05:04:15.762Z,3.30
2022-11-15T05:05:12.224Z,3.26
2022-11-15T05:06:08.691Z,3.25
2022-11-15T05:07:05.360Z,3.20
2022-11-15T05:08:01.827Z,3.18
2022-11-15T05:08:58.315Z,3.23
2022-11-15T05:09:54.760Z,3.29
2022-11-15T05:10:51.440Z,3.25
2022-11-15T05:11:48.122Z,3.18
2022-11-15T05:12:44.634Z,3.31
2022-11-15T05:13:41.088Z,3.22
2022-11-15T05:14:37.573Z,3.27
2022-11-15T05:15:34.076Z,3.29
2022-11-15T05:16:30.586Z,3.20
2022-11-15T05:17:27.147Z,3.18
2022-11-15T05:18:24.016Z,3.09
2022-11-15T05:19:20.607Z,3.07
2022-11-15T05:20:17.043Z,3.05
2022-11-15T05:21:15.021Z,3.10
2022-11-15T05:22:11.474Z,3.11
2022-11-15T05:23:08.020Z,3.11
2022-11-15T05:24:04.646Z,3.09
2022-11-15T05:25:01.111Z,3.16
2022-11-15T05:26:06.441Z,3.23
2022-11-15T05:27:05.509Z,3.23
2022-11-15T05:28:02.087Z,3.23
2022-11-15T05:28:59.518Z,3.28
2022-11-15T05:29:55.961Z,3.31
2022-11-15T05:30:52.443Z,3.14
2022-11-15T05:31:49.077Z,2.81
2022-11-15T05:32:45.946Z,3.07
2022-11-15T05:33:43.532Z,2.95
2022-11-15T05:34:40.426Z,2.98
2022-11-15T05:35:40.610Z,3.02
2022-11-15T05:36:41.279Z,3.06
2022-11-15T05:37:37.847Z,3.07
2022-11-15T05:38:34.554Z,3.12
2022-11-15T05:39:31.048Z,3.11
2022-11-15T05:40:28.485Z,3.01
2022-11-15T05:41:39.999Z,3.01
2022-11-15T05:42:36.646Z,3.15
2022-11-15T05:43:36.012Z,3.19
2022-11-15T05:44:33.294Z,3.18
2022-11-15T05:45:29.940Z,3.17
2022-11-15T05:46:26.772Z,3.21
2022-11-15T05:47:25.465Z,3.27
2022-11-15T05:48:22.002Z,3.18
2022-11-15T05:49:20.606Z,3.26
2022-11-15T05:50:18.899Z,3.30
2022-11-15T05:51:16.515Z,3.32
2022-11-15T05:52:14.799Z,3.39
2022-11-15T05:53:12.810Z,3.21
2022-11-15T05:54:09.283Z,3.15
2022-11-15T05:55:06.755Z,3.30
2022-11-15T05:56:03.996Z,3.42
2022-11-15T05:57:01.121Z,3.44
2022-11-15T05:57:57.596Z,3.33
2022-11-15T05:58:59.441Z,3.38
2022-11-15T05:59:56.621Z,3.61
2022-11-15T06:00:53.157Z,3.67
2022-11-15T06:01:49.871Z,3.93
2022-11-15T06:02:46.349Z,3.84
2022-11-15T06:03:42.838Z,3.86
2022-11-15T06:04:39.563Z,3.65
2022-11-15T06:05:36.022Z,3.58
2022-11-15T06:06:32.551Z,3.60
2022-11-15T06:07:30.068Z,3.57
2022-11-15T06:08:26.596Z,3.45
2022-11-15T06:09:23.160Z,3.38
2022-11-15T06:10:19.627Z,3.39
2022-11-15T06:11:16.209Z,3.25
2022-11-15T06:12:12.732Z,3.39
2022-11-15T06:13:09.293Z,3.27
2022-11-15T06:14:05.906Z,3.30
2022-11-15T06:15:02.418Z,3.23
2022-11-15T06:15:58.994Z,3.22
2022-11-15T06:16:55.463Z,3.28
2022-11-15T06:17:52.085Z,3.22
2022-11-15T06:18:48.521Z,3.30
2022-11-15T06:19:44.985Z,3.21
2022-11-15T06:20:41.471Z,3.26
2022-11-15T06:21:38.022Z,3.17
2022-11-15T06:22:34.478Z,3.11
2022-11-15T06:23:34.659Z,3.16
2022-11-15T06:24:31.155Z,3.07
2022-11-15T06:25:28.274Z,3.14
2022-11-15T06:26:24.729Z,3.03
2022-11-15T06:27:21.179Z,2.95
2022-11-15T06:28:17.681Z,2.93
2022-11-15T06:29:14.155Z,3.20
2022-11-15T06:30:10.913Z,3.34
2022-11-15T06:31:08.552Z,3.24
2022-11-15T06:32:05.215Z,3.27
2022-11-15T06:33:03.138Z,3.14
2022-11-15T06:33:59.616Z,3.03
2022-11-15T06:34:56.050Z,3.07
2022-11-15T06:35:52.520Z,2.84
2022-11-15T06:36:48.960Z,3.01
2022-11-15T06:37:45.362Z,3.06
2022-11-15T06:38:41.832Z,3.12
2022-11-15T06:39:38.342Z,3.19
2022-11-15T06:40:36.211Z,3.23
2022-11-15T06:41:35.265Z,3.23
2022-11-15T06:42:31.851Z,3.17
2022-11-15T06:43:28.405Z,3.26
2022-11-15T06:44:24.927Z,3.34
2022-11-15T06:45:21.400Z,3.28
2022-11-15T06:46:17.887Z,3.36
2022-11-15T06:47:14.330Z,3.38
2022-11-15T06:48:10.772Z,3.30
2022-11-15T06:49:09.806Z,3.39
2022-11-15T06:50:06.697Z,3.57
2022-11-15T06:51:04.345Z,3.43
2022-11-15T06:52:00.807Z,3.27
2022-11-15T06:53:01.240Z,3.46
2022-11-15T06:53:57.722Z,3.58
2022-11-15T06:54:54.184Z,3.56
2022-11-15T06:55:55.035Z,3.63
2022-11-15T06:56:51.996Z,3.65
2022-11-15T06:57:51.937Z,3.70
2022-11-15T06:58:48.434Z,3.73
2022-11-15T06:59:45.008Z,3.68
2022-11-15T07:00:42.024Z,3.68
2022-11-15T07:01:38.641Z,3.75
2022-11-15T07:02:35.157Z,3.71
2022-11-15T07:03:32.399Z,3.77
2022-11-15T07:04:29.230Z,4.03
2022-11-15T07:05:25.738Z,3.76
2022-11-15T07:06:22.441Z,3.92
2022-11-15T07:07:18.997Z,4.28
2022-11-15T07:08:15.462Z,4.23
2022-11-15T07:09:11.946Z,4.29
2022-11-15T07:10:08.867Z,4.22
2022-11-15T07:11:06.679Z,4.14
2022-11-15T07:12:07.510Z,3.99
2022-11-15T07:13:04.438Z,3.42
2022-11-15T07:14:01.320Z,3.91
2022-11-15T07:14:57.786Z,3.99
2022-11-15T07:15:54.359Z,3.95
2022-11-15T07:16:50.843Z,4.05
2022-11-15T07:17:47.352Z,4.11
2022-11-15T07:18:43.908Z,4.25
2022-11-15T07:19:40.371Z,4.16
2022-11-15T07:20:36.857Z,4.05
2022-11-15T07:21:33.620Z,3.99
2022-11-15T07:22:30.066Z,3.92
2022-11-15T07:23:26.511Z,3.92
2022-11-15T07:24:22.956Z,3.75
2022-11-15T07:25:19.590Z,3.73
2022-11-15T07:26:16.282Z,3.87
2022-11-15T07:27:12.791Z,3.97
2022-11-15T07:28:09.553Z,3.99
2022-11-15T07:29:06.157Z,4.00
2022-11-15T07:30:02.590Z,4.16
2022-11-15T07:30:59.112Z,4.23
2022-11-15T07:31:55.789Z,4.28
2022-11-15T07:32:58.752Z,4.15
2022-11-15T07:33:55.211Z,4.05
2022-11-15T07:34:51.707Z,4.08
2022-11-15T07:35:51.236Z,4.19
2022-11-15T07:36:47.759Z,4.19
2022-11-15T07:37:44.202Z,4.02
2022-11-15T07:38:43.059Z,4.01
2022-11-15T07:39:39.754Z,3.81
2022-11-15T07:40:36.260Z,3.84
2022-11-15T07:41:32.774Z,3.95
2022-11-15T07:42:51.036Z,3.99
2022-11-15T07:43:47.468Z,4.13
2022-11-15T07:44:44.034Z,4.07
2022-11-15T07:45:44.047Z,4.24
2022-11-15T07:46:40.613Z,4.09
2022-11-15T07:47:37.108Z,3.93
2022-11-15T07:48:43.532Z,3.92
2022-11-15T07:49:41.178Z,3.86
2022-11-15T07:50:37.779Z,3.84
2022-11-15T07:51:34.291Z,4.06
2022-11-15T07:52:30.903Z,4.39
2022-11-15T07:53:27.410Z,4.09
2022-11-15T07:54:23.856Z,3.81
2022-11-15T07:55:20.366Z,3.84
2022-11-15T07:56:16.981Z,3.90
2022-11-15T07:57:13.485Z,4.00
2022-11-15T07:58:11.151Z,3.97
2022-11-15T07:59:07.616Z,3.93
2022-11-15T08:00:04.835Z,3.92
2022-11-15T08:01:08.757Z,3.88
2022-11-15T08:02:05.448Z,3.71
2022-11-15T08:03:02.793Z,3.99
2022-11-15T08:03:59.292Z,3.94
2022-11-15T08:04:55.902Z,3.48
2022-11-15T08:05:53.217Z,4.04
2022-11-15T08:06:49.697Z,3.97
2022-11-15T08:07:46.274Z,4.14
2022-11-15T08:08:42.790Z,4.20
2022-11-15T08:09:39.317Z,4.17
2022-11-15T08:10:40.390Z,4.31
2022-11-15T08:11:37.348Z,4.21
2022-11-15T08:12:33.810Z,4.20
2022-11-15T08:13:30.613Z,4.24
2022-11-15T08:14:27.365Z,4.28
2022-11-15T08:15:23.805Z,4.02
2022-11-15T08:16:20.378Z,3.78
2022-11-15T08:17:16.943Z,3.71
2022-11-15T08:18:15.622Z,3.88
2022-11-15T08:19:12.035Z,4.11
2022-11-15T08:20:08.808Z,4.11
2022-11-15T08:21:05.419Z,4.15
2022-11-15T08:22:01.916Z,4.24
2022-11-15T08:22:59.032Z,4.30
2022-11-15T08:23:55.510Z,4.56
2022-11-15T08:24:51.942Z,4.43
2022-11-15T08:25:48.503Z,4.47
2022-11-15T08:26:45.238Z,4.58
2022-11-15T08:27:41.783Z,4.63
2022-11-15T08:28:38.464Z,4.81
2022-11-15T08:29:34.948Z,5.00
2022-11-15T08:30:32.229Z,4.88
2022-11-15T08:31:28.742Z,4.72
2022-11-15T08:32:25.215Z,4.82
2022-11-15T08:33:21.736Z,4.61
2022-11-15T08:34:18.153Z,4.54
2022-11-15T08:35:15.034Z,4.59
2022-11-15T08:36:14.141Z,4.47
2022-11-15T08:37:10.631Z,3.96
2022-11-15T08:38:07.172Z,4.04
2022-11-15T08:39:03.693Z,4.55
2022-11-15T08:40:00.350Z,4.75
2022-11-15T08:41:01.830Z,4.40
2022-11-15T08:41:58.484Z,4.52
2022-11-15T08:42:55.089Z,4.75
2022-11-15T08:43:51.586Z,4.67
2022-11-15T08:44:49.949Z,4.65
2022-11-15T08:45:47.007Z,4.51
2022-11-15T08:46:43.481Z,4.72
2022-11-15T08:47:39.957Z,4.76
2022-11-15T08:48:36.410Z,4.54
2022-11-15T08:49:32.910Z,4.68
2022-11-15T08:50:29.606Z,4.87
2022-11-15T08:51:26.065Z,4.83
2022-11-15T08:52:22.529Z,4.86
2022-11-15T08:53:18.951Z,5.39
2022-11-15T08:54:15.437Z,5.09
2022-11-15T08:55:11.958Z,4.97
2022-11-15T08:56:10.130Z,4.93
2022-11-15T08:57:06.991Z,4.73
2022-11-15T08:58:03.584Z,4.96
2022-11-15T08:59:00.035Z,4.93
2022-11-15T08:59:56.620Z,5.08
2022-11-15T09:00:53.062Z,5.19
2022-11-15T09:01:49.668Z,5.15
2022-11-15T09:02:46.185Z,5.14
2022-11-15T09:03:42.658Z,4.91
2022-11-15T09:04:40.516Z,5.19
2022-11-15T09:05:37.797Z,5.27
2022-11-15T09:06:34.420Z,4.97
2022-11-15T09:07:31.757Z,4.91
2022-11-15T09:08:48.257Z,4.91
2022-11-15T09:09:45.223Z,5.10
2022-11-15T09:10:41.706Z,5.27
2022-11-15T09:11:38.622Z,5.29
2022-11-15T09:12:35.187Z,5.32
2022-11-15T09:13:31.670Z,5.37
2022-11-15T09:14:28.139Z,5.34
2022-11-15T09:15:24.751Z,5.28
2022-11-15T09:16:21.277Z,5.58
2022-11-15T09:17:21.777Z,5.58
2022-11-15T09:18:23.412Z,5.20
2022-11-15T09:19:20.066Z,5.07
2022-11-15T09:20:16.856Z,5.05
2022-11-15T09:21:13.552Z,5.24
2022-11-15T09:22:10.008Z,5.48
2022-11-15T09:23:06.893Z,5.59
2022-11-15T09:24:05.282Z,5.65
2022-11-15T09:25:01.722Z,5.51
2022-11-15T09:26:02.235Z,5.41
2022-11-15T09:26:58.679Z,5.87
2022-11-15T09:27:55.207Z,5.56
2022-11-15T09:30:05.861Z,5.66
2022-11-15T09:31:03.834Z,5.68
2022-11-15T09:32:00.296Z,5.81
2022-11-15T09:32:56.727Z,5.59
2022-11-15T09:33:53.302Z,5.78
2022-11-15T09:34:50.332Z,5.50
2022-11-15T09:35:46.767Z,5.42
2022-11-15T09:36:43.219Z,5.50
2022-11-15T09:37:39.769Z,5.52
2022-11-15T09:38:36.758Z,5.69
2022-11-15T09:39:33.265Z,5.74
2022-11-15T09:40:31.029Z,5.75
2022-11-15T09:41:27.472Z,5.75
2022-11-15T09:42:31.095Z,5.58
2022-11-15T09:43:31.292Z,5.62
2022-11-15T09:44:40.041Z,5.34
2022-11-15T09:45:55.286Z,5.42
2022-11-15T09:46:51.878Z,5.05
2022-11-15T09:48:06.884Z,5.01
2022-11-15T09:49:03.726Z,4.95
2022-11-15T09:50:02.141Z,5.28
2022-11-15T09:51:01.338Z,5.39
2022-11-15T09:51:58.353Z,5.34
2022-11-15T09:52:56.051Z,5.35
2022-11-15T09:55:11.081Z,5.35
2022-11-15T09:56:15.343Z,5.41
2022-11-15T09:57:16.324Z,5.40
2022-11-15T09:58:30.760Z,5.29
2022-11-15T09:59:40.670Z,5.54
2022-11-15T10:00:48.582Z,4.93
2022-11-15T10:01:51.280Z,5.23
2022-11-15T10:02:53.656Z,5.56
2022-11-15T10:03:50.143Z,5.75
2022-11-15T10:04:46.672Z,5.85
2022-11-15T10:05:44.762Z,6.10
2022-11-15T10:06:46.045Z,6.13
2022-11-15T10:08:03.552Z,5.96
2022-11-15T10:09:05.670Z,5.77
2022-11-15T10:10:05.502Z,5.96
2022-11-15T10:11:36.070Z,5.89
2022-11-15T10:12:25.235Z,5.85
2022-11-15T10:13:26.452Z,5.45
2022-11-15T10:14:25.363Z,5.61
2022-11-15T10:15:25.109Z,5.99
2022-11-15T10:16:29.628Z,6.39
2022-11-15T10:17:42.483Z,6.12
2022-11-15T10:18:41.962Z,6.00
2022-11-15T10:19:47.600Z,5.97
2022-11-15T10:20:51.835Z,6.06
2022-11-15T10:22:06.444Z,6.18
2022-11-15T10:23:06.685Z,6.56
2022-11-15T10:24:07.381Z,6.22
2022-11-15T10:25:09.795Z,6.14
2022-11-15T10:26:09.448Z,6.33
2022-11-15T10:27:13.456Z,5.93
2022-11-15T10:28:12.582Z,5.94
2022-11-15T10:29:09.028Z,5.83
2022-11-15T10:30:11.186Z,5.97
2022-11-15T10:31:22.281Z,6.00
2022-11-15T10:32:19.893Z,6.09
2022-11-15T10:33:31.430Z,6.22
2022-11-15T10:34:28.528Z,6.01
2022-11-15T10:35:29.507Z,6.49
2022-11-15T10:36:26.682Z,6.60
2022-11-15T10:37:30.604Z,6.68
2022-11-15T10:38:27.039Z,6.64
2022-11-15T10:40:38.524Z,6.60
2022-11-15T10:41:39.637Z,6.34
2022-11-15T10:42:36.110Z,6.25
2022-11-15T10:43:32.676Z,6.33
2022-11-15T10:44:33.259Z,6.27
2022-11-15T10:45:31.722Z,5.84
2022-11-15T10:47:44.608Z,5.94
2022-11-15T10:48:41.492Z,5.88
2022-11-15T10:49:44.604Z,6.05
2022-11-15T10:50:47.992Z,6.08
2022-11-15T10:51:53.148Z,6.83
2022-11-15T10:52:49.710Z,6.81
2022-11-15T10:53:47.261Z,6.49
2022-11-15T10:54:46.915Z,6.39
2022-11-15T10:55:47.305Z,6.49
2022-11-15T10:56:43.760Z,6.44
2022-11-15T10:57:40.636Z,6.50
2022-11-15T10:58:42.468Z,6.67
2022-11-15T10:59:39.565Z,6.59
2022-11-15T11:00:42.728Z,6.50
2022-11-15T11:01:47.007Z,6.59
2022-11-15T11:02:57.253Z,6.64
2022-11-15T11:04:02.492Z,6.39
2022-11-15T11:04:59.490Z,6.46
2022-11-15T11:06:25.212Z,6.55
2022-11-15T11:07:23.393Z,6.80
2022-11-15T11:08:24.647Z,6.87
2022-11-15T11:09:33.311Z,6.70
2022-11-15T11:10:50.584Z,7.01
2022-11-15T11:11:48.335Z,7.02
2022-11-15T11:12:44.868Z,6.83
2022-11-15T11:13:41.443Z,6.68
2022-11-15T11:14:38.664Z,6.30
2022-11-15T11:15:35.311Z,6.49
2022-11-15T11:16:48.228Z,6.76
2022-11-15T11:17:59.679Z,6.92
2022-11-15T11:19:02.417Z,6.76
2022-11-15T11:20:05.591Z,6.94
2022-11-15T11:21:10.358Z,6.99
2022-11-15T11:22:13.256Z,7.00
2022-11-15T11:23:23.306Z,6.87
2022-11-15T11:24:28.775Z,6.70
2022-11-15T11:25:31.236Z,6.79
2022-11-15T11:26:30.779Z,6.59
2022-11-15T11:27:30.240Z,6.56
2022-11-15T11:28:31.630Z,6.42
2022-11-15T11:29:46.780Z,6.65
2022-11-15T11:31:02.132Z,6.62
2022-11-15T11:32:07.836Z,6.82
2022-11-15T11:33:22.625Z,7.01
2022-11-15T11:34:37.610Z,6.35
2022-11-15T11:35:49.213Z,6.71
2022-11-15T11:36:45.668Z,7.15
2022-11-15T11:37:53.611Z,7.23
2022-11-15T11:38:59.221Z,7.02
2022-11-15T11:40:06.112Z,6.71
2022-11-15T11:41:08.510Z,6.85
2022-11-15T11:42:10.478Z,7.06
2022-11-15T11:43:07.302Z,6.76
2022-11-15T11:44:22.297Z,6.76
2022-11-15T11:45:24.851Z,6.54
2022-11-15T11:46:24.455Z,6.53
2022-11-15T11:47:25.888Z,7.05
2022-11-15T11:48:29.518Z,6.97
2022-11-15T11:49:31.130Z,6.75
2022-11-15T11:50:28.910Z,6.87
2022-11-15T11:51:40.032Z,6.89
2022-11-15T11:52:42.510Z,6.74
2022-11-15T11:53:42.255Z,6.66
2022-11-15T11:54:57.567Z,6.71
2022-11-15T11:55:55.529Z,6.89
2022-11-15T11:56:54.035Z,7.01
2022-11-15T11:57:57.268Z,7.13
2022-11-15T11:58:54.882Z,7.15
2022-11-15T11:59:54.584Z,6.88
2022-11-15T12:00:53.857Z,7.13
2022-11-15T12:01:50.713Z,6.97
2022-11-15T12:03:04.957Z,6.80
2022-11-15T12:04:16.495Z,6.94
2022-11-15T12:05:15.996Z,7.02
2022-11-15T12:06:31.063Z,7.35
2022-11-15T12:07:33.455Z,7.77
2022-11-15T12:08:45.131Z,7.48
2022-11-15T12:09:48.751Z,7.08
2022-11-15T12:10:48.631Z,7.21
2022-11-15T12:12:03.611Z,7.04
2022-11-15T12:13:02.982Z,6.97
2022-11-15T12:14:01.297Z,7.06
2022-11-15T12:15:11.087Z,7.03
2022-11-15T12:16:17.194Z,7.38
2022-11-15T12:17:14.185Z,7.48
2022-11-15T12:18:13.981Z,7.46
2022-11-15T12:19:10.680Z,7.48
2022-11-15T12:20:18.291Z,7.34
2022-11-15T12:21:28.273Z,7.21
2022-11-15T12:22:25.229Z,6.98
2022-11-15T12:23:29.883Z,7.12
2022-11-15T12:24:35.474Z,7.34
2022-11-15T12:25:38.271Z,7.57
2022-11-15T12:26:40.945Z,7.54
2022-11-15T12:27:40.733Z,7.55
2022-11-15T12:29:06.942Z,7.47
2022-11-15T12:30:10.299Z,7.47
2022-11-15T12:31:06.779Z,7.46
2022-11-15T12:32:04.743Z,7.28
2022-11-15T12:33:02.417Z,7.28
2022-11-15T12:34:04.304Z,7.32
2022-11-15T12:35:04.793Z,7.43
2022-11-15T12:36:03.048Z,7.13
2022-11-15T12:36:59.538Z,6.76
2022-11-15T12:37:56.633Z,6.99
2022-11-15T12:38:53.577Z,7.13
2022-11-15T12:40:19.238Z,7.02
2022-11-15T12:41:18.080Z,7.12
2022-11-15T12:42:14.486Z,7.38
2022-11-15T12:43:13.651Z,7.34
2022-11-15T12:44:14.702Z,7.04
2022-11-15T12:45:29.758Z,7.40
2022-11-15T12:46:32.137Z,7.17
2022-11-15T12:47:28.656Z,7.24
2022-11-15T12:48:37.095Z,7.20
2022-11-15T12:49:36.659Z,7.39
2022-11-15T12:50:51.373Z,7.35
2022-11-15T12:51:47.959Z,7.26
2022-11-15T12:53:07.609Z,7.53
2022-11-15T12:54:24.048Z,7.35
2022-11-15T12:55:31.482Z,7.38
2022-11-15T12:56:27.945Z,7.28
2022-11-15T12:57:32.106Z,7.28
2022-11-15T12:58:39.654Z,7.35
2022-11-15T12:59:59.683Z,7.41
2022-11-15T13:00:56.254Z,7.61
2022-11-15T13:01:57.165Z,7.42
2022-11-15T13:03:13.483Z,7.53
2022-11-15T13:04:09.931Z,7.77
2022-11-15T13:05:19.449Z,7.89
2022-11-15T13:06:35.949Z,8.12
2022-11-15T13:07:35.607Z,7.95
2022-11-15T13:08:48.655Z,8.10
2022-11-15T13:09:47.904Z,8.02
2022-11-15T13:10:44.352Z,7.81
2022-11-15T13:11:48.659Z,7.72
2022-11-15T13:12:45.166Z,7.38
2022-11-15T13:13:45.687Z,7.52
2022-11-15T13:14:47.423Z,7.83
2022-11-15T13:15:43.903Z,8.02
2022-11-15T13:16:40.368Z,7.91
2022-11-15T13:17:49.012Z,7.69
2022-11-15T13:18:53.923Z,7.93
2022-11-15T13:20:01.652Z,7.80
2022-11-15T13:21:02.363Z,7.78